空港情報

日本の空港の気象及び、管制情報です。
気象情報はより詳細な情報が取得できる「AVIATION WEATER CENTER」 から取得しているため、VATSIMの気象情報と若干のタイムラグが生じることがあります。

VRCのフィールド設定用空港一覧はこちらをご覧ください。

RJCG Sapporo Control

RJCW / Wakkanai

NO RADAR

RADIO

08/26 2200x45

民間 civil

過去5時間に発表されたMETARがありません。

RJER / Rishiri

NO RADAR

REMOTE

25/07 1800x45

民間 civil

過去5時間に発表されたMETARがありません。

RJEB / Monbetsu

NO RADAR

REMOTE

32/14 2000x45

民間 civil

過去5時間に発表されたMETARがありません。

RJCM / Memanbetsu

NO RADAR

TOWER

36/18 2500x45

民間 civil

過去5時間に発表されたMETARがありません。

RJEC / Asahikawa

NO RADAR

TOWER

34/16 2500x60

民間 civil

過去5時間に発表されたMETARがありません。

RJCN / Nakashibetsu

NO RADAR

RADIO

08/26 2000x45

民間 civil

過去5時間に発表されたMETARがありません。

RJCK / Kushiro

NO RADAR

TOWER

17/35 2500x45

民間 civil

過去5時間に発表されたMETARがありません。

RJCO / Sapporo

RJCO_APP

TOWER

14/32 1500x30

共用 dual

過去5時間に発表されたMETARがありません。

RJCJ / Chitose

RJCC_APP

TOWER

36R/18L 3000x60
36L/18R 2700x45

自衛隊 military

過去5時間に発表されたMETARがありません。

RJCC / NewChitose
VMC

RJCC_APP

TOWER

01L/19R 3000x60
01R/19L 3000x60

民間 civil

9999

220@5KT

29.94

RJCC 181600Z 22005KT 9999 FEW010 SCT020 BKN045 18/17 Q1014 RMK 1ST010 3ST020 7SC045 A2994

RJCB / Obihiro

NO RADAR

TOWER

35/17 2500x45

民間 civil

過去5時間に発表されたMETARがありません。

RJEO / Okushiri

NO RADAR

REMOTE

12/30 1500x45

民間 civil

過去5時間に発表されたMETARがありません。

RJCH / Hakodate

RJCH_APP

TOWER

12/30 3000x45

民間 civil

過去5時間に発表されたMETARがありません。

RJSA / Aomori
VMC

NO RADAR

TOWER

24/06 3000x60

民間 civil

9999

340@3KT

29.88

RJSA 181200Z 34003KT 300V020 9999 FEW008 SCT015 BKN050 19/18 Q1012

RJSO / Ominato
VMC

RJSM_APP

TOWER

04/22 600x45

自衛隊 military

4900

060@5KT

29.91

RJSO 181532Z 06005KT 030V090 4900 -DZ BR SCT004 BKN007 OVC010 18/17 Q1013 RMK 3ST004 6ST007 8ST010 A2993

RJSM / Misawa

RJSM_APP

TOWER

10/28 3050x45

共用 dual

過去5時間に発表されたMETARがありません。

RJSH / Hachinohe

RJSM_APP

TOWER

25/07 2250x45

自衛隊 military

過去5時間に発表されたMETARがありません。

RJSK / Akita
VMC

NO RADAR

TOWER

10/28 2500x60

民間 civil

9999

000@2KT

29.82

RJSK 181200Z VRB02KT 9999 FEW013 SCT050 BKN090 24/22 Q1010

RJSI / Hanamaki

NO RADAR

RADIO

20/02 2500x45

民間 civil

過去5時間に発表されたMETARがありません。

RJSR / Odate-Noshiro

NO RADAR

REMOTE

11/29 2000x45

民間 civil

過去5時間に発表されたMETARがありません。

RJTG Tokyo Control

RJSY / Shonai
VMC

NO RADAR

RADIO

09/27 2000x45

民間 civil

9999

000@2KT

29.82

RJSY 181200Z VRB02KT 9999 FEW015 SCT040 BKN080 24/22 Q1010

RJSC / Yamagata

NO RADAR

RADIO

01/19 2000x45

民間 civil

過去5時間に発表されたMETARがありません。

RJST / Matsushima

RJSS_APP

TOWER

07/25 2071x46
15/33 1500x46

自衛隊 military

過去5時間に発表されたMETARがありません。

RJSS / Sendai
IMC

RJSS_APP

TOWER

27/09 3000x45
12/30 1200x45

民間 civil

4000

070@5KT

29.85

RJSS 181225Z 07005KT 4000 -DZ BR FEW001 BKN003 BKN005 21/21 Q1011 RMK 1ST001 5ST003 7ST005 A2988

RJSD / Sado

NO RADAR

REMOTE

10/28 890x25

民間 civil

過去5時間に発表されたMETARがありません。

RJSN / Niigata
VMC

RJSN_APP

TOWER

10/28 2500x45
04/22 1314x45

民間 civil

9999

070@3KT

29.82

RJSN 181200Z 07003KT 9999 FEW020 SCT030 BKN060 26/24 Q1010

RJSF / Fukushima

NO RADAR

RADIO

01/19 2500x60

民間 civil

過去5時間に発表されたMETARがありません。

RJAH / Ibaraki/Hyakuri
VMC

RJAH_APP

TOWER

03L/21R 2700x45
03R/21L 2700x45

共用 dual

5000

010@3KT

29.82

RJAH 181600Z 01003KT 5000 TS BR FEW003 BKN005 BKN012 FEW035CB 24/23 Q1010

RJTT / Tokyo
VMC

RJTT_APP

TOWER

34LR/16RL 3000x60
04/22&05/23 2500x60

民間 civil

9999

200@5KT

29.79

RJTT 181600Z 20005KT 170V230 9999 FEW007 SCT012 BKN070 27/26 Q1009 TEMPO FEW008 BKN012 RMK 1ST007 4CU012 6AC070 A2982

RJAA / Narita
VMC

RJTT_APP

TOWER

34L/16R 4000x60
34R/16L 2500x60

民間 civil

8000

000@0KT

29.82

RJAA 181600Z 00000KT 8000 FEW010 FEW030CB BKN080 25/24 Q1010 TEMPO 4000 BR

RJTL / Shimofusa

RJTT_APP

TOWER

19/01 2250x45

自衛隊 military

過去5時間に発表されたMETARがありません。

RJTE / Tateyama
VMC

RJTT_APP

TOWER

09/27 300x45

自衛隊 military

9999

000@2KT

29.82

RJTE 181348Z VRB02KT 9999 BKN010 SCT030 26/25 Q1010 RMK 5ST010 3CU030 A2985

RJTO / Oshima

NO RADAR

RADIO

03/21 1800x45

民間 civil

過去5時間に発表されたMETARがありません。

RJTK / Kisarazu

NO RADAR

TOWER

02/20 1830x45

自衛隊 military

過去5時間に発表されたMETARがありません。

RJAN / Niijima

NO RADAR

REMOTE

11/29 800x25

自衛隊 military

過去5時間に発表されたMETARがありません。

RJAZ / Kozushima

NO RADAR

REMOTE

11/29 800x25

民間 civil

過去5時間に発表されたMETARがありません。

RJTH / Hachijojima

NO RADAR

RADIO

26/08 2000x45

民間 civil

過去5時間に発表されたMETARがありません。

RJTF / Chofu

NO RADAR

Flight Service

35/17 800x30

民間 civil

過去5時間に発表されたMETARがありません。

RJTQ / Miyake

NO RADAR

REMOTE

02/20 1200x30

民間 civil

過去5時間に発表されたMETARがありません。

RJTC / Tachikawa

NO RADAR

TOWER

01/19 900x45

自衛隊 military

過去5時間に発表されたMETARがありません。

RJTA / Atsugi

NO RADAR

TOWER

01/19 2438x45

自衛隊 military

過去5時間に発表されたMETARがありません。

RJTU / Utsunomiya

RJTY_APP

TOWER

01/19 1700x45

自衛隊 military

過去5時間に発表されたMETARがありません。

RJTJ / Iruma

RJTY_APP

TOWER

17/35 2000x45

自衛隊 military

過去5時間に発表されたMETARがありません。

RJTY / Yokota
VMC

RJTY_APP

TOWER

18/36 3353x60

自衛隊 military

9999

020@4KT

29.88

RJTY 181556Z AUTO 02004KT 8SM OVC013 25/23 A2988 RMK AO2 CIG 012 RWY18 SLP114 T02480230 $

RJAF / Matsumoto

NO RADAR

RADIO

18/36 2000x45

民間 civil

過去5時間に発表されたMETARがありません。

RJNS / Shizuoka
VMC

NO RADAR

RADIO

30/12 2500x60

民間 civil

9999

220@3KT

29.82

RJNS 181200Z 22003KT 9999 FEW015 SCT090 26/26 Q1010

RJNY / Yaizu-Shizuhama
VMC

NO RADAR

TOWER

27/09 1500x45

自衛隊 military

9999

240@3KT

29.82

RJNY 181432Z 24003KT 9999 FEW015 BKN100 25/24 Q1010 RMK 1CU015 5AC100 A2983 LIGHTNING NW

RJNH / Hamamatsu

RJNH_APP

TOWER

09/27 2550x60

自衛隊 military

過去5時間に発表されたMETARがありません。

RJGG / Chubu
VMC

RJGG_APP

TOWER

36/18 3500x60

民間 civil

9999

350@13KT

29.79

RJGG 181600Z 35013KT 9999 FEW010 25/23 Q1009 NOSIG

RJNA / Nagoya

RJGG_APP

TOWER

34/16 2740x45

民間 civil

過去5時間に発表されたMETARがありません。

RJNG / Gifu
VMC

RJGG_APP

TOWER

28/10 2710x46

自衛隊 military

9999

000@2KT

29.82

RJNG 181540Z VRB02KT 9999 FEW010 SCT025 BKN045 24/23 Q1010 RMK 1CU010 3CU025 5SC045 A2983 LIGHTNING SE

RJOE / Akeno

RJOE_APP

TOWER

13/31 500x30
04/22 500x30

自衛隊 military

過去5時間に発表されたMETARがありません。

RJNK / Komatsu
VMC

RJNK_APP

TOWER

06/24 2700x45

共用 dual

9999

190@4KT

29.82

RJNK 181600Z 19004KT 9999 FEW020 SCT030 25/23 Q1010

RJNW / Noto

NO RADAR

RADIO

25/07 2000x45

民間 civil

過去5時間に発表されたMETARがありません。

RJNT / Toyama
VMC

NO RADAR

TOWER

20/02 2000x45

民間 civil

9999

000@2KT

29.82

RJNT 181200Z VRB02KT 9999 FEW005 SCT050 BKN150 24/23 Q1010

RJNF / Fukui

NO RADAR

REMOTE

18/36 1200x30

民間 civil

過去5時間に発表されたMETARがありません。

RJBD / Nanki-Shirahama

NO RADAR

RADIO

15/33 2000x45

民間 civil

過去5時間に発表されたMETARがありません。

RJOY / Yao

RJBB_APP

TOWER

27/09 1490x45
13/31 1200x30

民間 civil

過去5時間に発表されたMETARがありません。

RJOO / Osaka

RJBB_APP

TOWER

32L/14R 3000x60
32R/14L 1830x45

民間 civil

過去5時間に発表されたMETARがありません。

RJOB / Okayama
VMC

RJBB_APP

TOWER

07/25 3000x45

民間 civil

9999

330@3KT

29.88

RJOB 181200Z 33003KT 300V010 9999 FEW025 SCT060 25/22 Q1012

RJBB / Kansai
VMC

RJBB_APP

TOWER

06R/24L 3500x60
06L/24R 4000x60

民間 civil

9999

030@9KT

29.82

RJBB 181600Z AUTO 03009KT 9999 NSC 27/23 Q1010 NOSIG

RJBE / Kobe
VMC

RJBB_APP

TOWER

09/27 2500x60

民間 civil

9999

150@4KT

29.82

RJBE 181200Z 15004KT 9999 FEW025 28/25 Q1010

RJBT / Tajima

NO RADAR

REMOTE

01/19 1200x30

民間 civil

過去5時間に発表されたMETARがありません。

RJOR / Tottori
VMC

NO RADAR

RADIO

10/28 2000x45

民間 civil

9999

000@2KT

29.85

RJOR 181200Z VRB02KT 9999 FEW015 SCT045 25/22 Q1011

RJNO / Oki

NO RADAR

REMOTE

07/25 2000x45

民間 civil

過去5時間に発表されたMETARがありません。

RJOH / Miho
VMC

RJOH_APP

TOWER

25/07 2500x45

共用 dual

9999

180@3KT

29.85

RJOH 181600Z 18003KT 9999 FEW020 BKN/// 24/21 Q1011

RJOC / Izumo

RJOH_APP

RADIO

07/25 2000x45

共用 dual

過去5時間に発表されたMETARがありません。

RJDG Fukuoka Control

RJOT / Takamatsu
VMC

RJBB_APP

TOWER

26/08 2500x60

民間 civil

9999

150@4KT

29.88

RJOT 181200Z 15004KT 9999 FEW020 FEW025CB BKN045 26/23 Q1012

RJOK / Kochi

RJBB_APP

TOWER

32/14 2500x45

民間 civil

過去5時間に発表されたMETARがありません。

RJOS / Tokushima

RJOS_APP

TOWER

29/11 2500x45

共用 dual

過去5時間に発表されたMETARがありません。

RJOA / Hiroshima
VMC

RJOA_APP

TOWER

10/28 3000x60

民間 civil

9999

310@7KT

29.88

RJOA 181200Z 31007KT 280V360 9999 FEW010 SCT120 24/21 Q1012

RJBH / Hiroshimanishi

NO RADAR

Flight Service

04/22 1800x45

民間 civil

過去5時間に発表されたMETARがありません。

RJOI / Iwakuni
VMC

RJOI_APP

TOWER

02/20 2440x60

共用 dual

9999

310@3KT

29.87

RJOI 181555Z 31003KT 9999 FEW120 BKN230 26/23 A2987 RMK SLP113 T02610228

RJOM / Matsuyama
VMC

RJOI_APP

TOWER

14/32 2500x45

民間 civil

9999

120@9KT

29.82

RJOM 181200Z 12009KT 9999 FEW030 27/21 Q1010

RJOZ / Ozuki

RJFZ_APP

TOWER

35/17 1201x61
12/30 899x46

自衛隊 military

過去5時間に発表されたMETARがありません。

RJOF / Hofu

RJFZ_APP

TOWER

30/12 1180x60
01/19 1480x45

自衛隊 military

過去5時間に発表されたMETARがありません。

RJDC / Yamaguchi-Ube
VMC

RJFZ_APP

RADIO

07/25 2500x45

民間 civil

9999

360@6KT

29.82

RJDC 181200Z 36006KT 310V030 9999 FEW040 26/23 Q1010

RJFR / Kitakyushu
VMC

RJFZ_APP

TOWER

18/36 2500x60

民間 civil

9999

260@1KT

29.85

RJFR 181600Z 26001KT CAVOK 26/22 Q1011

RJFZ / Tsuiki

RJFZ_APP

TOWER

25/07 2399x46

自衛隊 military

過去5時間に発表されたMETARがありません。

RJOW / Iwami

NO RADAR

REMOTE

11/29 2000x45

民間 civil

過去5時間に発表されたMETARがありません。

RJDT / Tsushima

NO RADAR

REMOTE

32/14 1900x45

民間 civil

過去5時間に発表されたMETARがありません。

RJFF / Fukuoka
VMC

RJFF_APP

TOWER

16/34 2800x60

民間 civil

9999

000@2KT

29.85

RJFF 181600Z AUTO VRB02KT 9999 NSC 26/22 Q1011 RMK A2987

RJFS / Saga
VMC

RJFF_APP

RADIO

29/11 2000x45

民間 civil

9999

330@3KT

29.85

RJFS 181600Z 33003KT 310V020 9999 FEW040 SCT/// 25/23 Q1011

RJFA / Ashiya

RJFF_APP

TOWER

12/30 1640x46

自衛隊 military

過去5時間に発表されたMETARがありません。

RJDB / Iki

RJFF_APP

REMOTE

20/02 1200x30

民間 civil

過去5時間に発表されたMETARがありません。

RJFO / Oita
VMC

RJFO_APP

TOWER

01/19 3000x45

民間 civil

9999

260@4KT

29.85

RJFO 181300Z 26004KT 9999 FEW030 SCT060 26/24 Q1011

RJFU / Nagasaki
VMC

RJFU_APP

TOWER

32/14 3000x60

民間 civil

9999

330@5KT

29.85

RJFU 181200Z 33005KT 9999 FEW025 27/23 Q1011

RJDU / Omura

RJFU_APP

TOWER

18/36 1200x30

自衛隊 military

過去5時間に発表されたMETARがありません。

RJFE / Fukue

NO RADAR

RADIO

03/21 2000x45

民間 civil

過去5時間に発表されたMETARがありません。

RJDO / Ojika

NO RADAR

REMOTE

03/21 800x30

民間 civil

過去5時間に発表されたMETARがありません。

RJDK / Kamigoto

NO RADAR

REMOTE

17/35 800x30

民間 civil

過去5時間に発表されたMETARがありません。

RJDA / Amakusa

NO RADAR

Flight Service

31/13 1000x30

民間 civil

過去5時間に発表されたMETARがありません。

RJFT / Kumamoto
VMC

RJFT_APP

TOWER

07/25 3000x45

民間 civil

9999

190@3KT

29.88

RJFT 181200Z 19003KT 160V230 9999 FEW040 27/22 Q1012

RJFN / Nyutabaru

RJFM_APP

TOWER

28/10 2701x46

自衛隊 military

過去5時間に発表されたMETARがありません。

RJFM / Miyazaki
VMC

RJFM_APP

TOWER

27/09 2500x45

民間 civil

9999

020@4KT

29.82

RJFM 181200Z 02004KT 350V070 9999 FEW010 28/26 Q1010

RJFK / Kagoshima
VMC

RJFK_APP

TOWER

34/16 3000x45

民間 civil

9999

290@3KT

29.88

RJFK 181200Z 29003KT 260V340 9999 FEW040 25/20 Q1012 RMK 1CU040 A2990

RJFY / Kanoya

RJFY_APP

TOWER

26L/08R 2250x45
26R/08L 1200x40

自衛隊 military

過去5時間に発表されたMETARがありません。

RJFG / Tanegashima

NO RADAR

RADIO

31/13 2000x45

民間 civil

過去5時間に発表されたMETARがありません。

RJFC / Yakushima

NO RADAR

REMOTE

14/32 1500x45

民間 civil

過去5時間に発表されたMETARがありません。

RORG Naha Control

ROAH / Naha
VMC

ROAH_APP

TOWER

36/18 3000x45

共用 dual

9999

160@2KT

29.85

ROAH 181600Z 16002KT 9999 FEW025 30/24 Q1011 RMK 1CU025 A2988

RORA / Aguni

ROAH_APP

REMOTE

01/19 800x25

民間 civil

過去5時間に発表されたMETARがありません。

ROKJ / Kumejima

ROAH_APP

REMOTE

03/21 2000x45

民間 civil

過去5時間に発表されたMETARがありません。

RODN / Kadena
VMC

ROAH_APP

TOWER

05L/23R 3688x91
05R/23L 3688x61

自衛隊 military

9999

000@0KT

29.89

RODN 181556Z AUTO 00000KT 10SM FEW041 27/24 A2989 RMK AO2 SLP126 T02680244 $

ROTM / Futenma
VMC

ROAH_APP

TOWER

06/24 2740x45

自衛隊 military

9999

000@3KT

29.91

ROTM 181458Z VRB03KT 9999 SCT030 30/25 A2991 RMK SLP105 STNPR29610 T03040245 403350275 54000

RORS / Shimojishima

RORS_APP

TOWER

17/35 3000x60

民間 civil

過去5時間に発表されたMETARがありません。

ROMY / Miyako

RORS_APP

TOWER

04/22 2000x45

民間 civil

過去5時間に発表されたMETARがありません。

ROIG / New Ishigaki

RORS_APP

TOWER

22/04 2000x45

民間 civil

過去5時間に発表されたMETARがありません。

RORT / Tarama

RORS_APP

REMOTE

36/18 1500x45

民間 civil

過去5時間に発表されたMETARがありません。

RJKA / Amami

NO RADAR

RADIO

03/21 2000x45

民間 civil

過去5時間に発表されたMETARがありません。

RJKI / Kikai

NO RADAR

REMOTE

07/25 1200x30

民間 civil

過去5時間に発表されたMETARがありません。

RJKN / Tokunoshima

NO RADAR

REMOTE

19/01 2000x45

民間 civil

過去5時間に発表されたMETARがありません。

RJKB / Okierabu

NO RADAR

REMOTE

04/22 1350x45

民間 civil

過去5時間に発表されたMETARがありません。

RORY / Yoron
VMC

NO RADAR

REMOTE

32/14 1320x30

民間 civil

9999

090@3KT

29.85

RORY 181600Z AUTO 09003KT 9999 FEW021 29/25 Q1011

RORK / Kitadaito

NO RADAR

REMOTE

03/21 1500x45

民間 civil

過去5時間に発表されたMETARがありません。

ROMD / Minami-daito

NO RADAR

REMOTE

02/20 1500x45

民間 civil

過去5時間に発表されたMETARがありません。

ROYN / Yonaguni
VMC

NO RADAR

REMOTE

26/08 2000x45

民間 civil

9999

170@4KT

29.85

ROYN 181600Z AUTO 17004KT 9999 FEW017 28/26 Q1011

RORH / Hateruma

NO RADAR

REMOTE

02/20 800x25

民間 civil

過去5時間に発表されたMETARがありません。

ROKR / Kerama

NO RADAR

REMOTE

02/20 800x25

民間 civil

過去5時間に発表されたMETARがありません。